createdAt,value
2018-08-17T00:02:27.503Z,64.90
2018-08-17T00:04:55.642Z,65.00
2018-08-17T00:07:23.782Z,65.20
2018-08-17T00:09:51.926Z,65.20
2018-08-17T00:12:20.062Z,66.00
2018-08-17T00:14:48.205Z,65.20
2018-08-17T00:17:16.351Z,65.20
2018-08-17T00:19:44.485Z,65.20
2018-08-17T00:22:12.639Z,65.40
2018-08-17T00:24:40.765Z,65.50
2018-08-17T00:27:08.908Z,65.60
2018-08-17T00:29:37.056Z,65.80
2018-08-17T00:32:05.201Z,65.80
2018-08-17T00:34:33.351Z,65.80
2018-08-17T00:37:01.492Z,66.00
2018-08-17T00:39:29.635Z,66.00
2018-08-17T00:41:57.829Z,65.80
2018-08-17T00:44:25.984Z,65.70
2018-08-17T00:46:54.100Z,65.60
2018-08-17T00:49:22.251Z,65.60
2018-08-17T00:51:50.390Z,65.40
2018-08-17T00:54:18.554Z,65.10
2018-08-17T00:56:46.700Z,64.90
2018-08-17T00:59:14.861Z,64.90
2018-08-17T01:01:42.998Z,64.70
2018-08-17T01:04:11.157Z,64.50
2018-08-17T01:06:39.383Z,64.40
2018-08-17T01:09:08.489Z,64.50
2018-08-17T01:11:36.656Z,64.50
2018-08-17T01:14:04.838Z,64.80
2018-08-17T01:16:32.986Z,64.60
2018-08-17T01:19:01.147Z,64.70
2018-08-17T01:21:29.274Z,64.90
2018-08-17T01:23:57.435Z,64.80
2018-08-17T01:26:25.627Z,64.90
2018-08-17T01:28:53.993Z,64.90
2018-08-17T01:31:22.370Z,64.90
2018-08-17T01:33:50.489Z,64.90
2018-08-17T01:36:18.630Z,64.90
2018-08-17T01:38:46.801Z,64.90
2018-08-17T01:41:14.948Z,64.90
2018-08-17T01:43:43.325Z,65.10
2018-08-17T01:46:11.488Z,65.20
2018-08-17T01:48:39.633Z,65.40
2018-08-17T01:51:07.778Z,65.40
2018-08-17T01:53:35.944Z,65.40
2018-08-17T01:56:04.098Z,65.50
2018-08-17T01:58:32.320Z,65.50
2018-08-17T02:01:00.467Z,65.70
2018-08-17T02:03:28.678Z,65.90
2018-08-17T02:05:56.848Z,66.00
2018-08-17T02:08:25.018Z,66.00
2018-08-17T02:10:53.185Z,66.00
2018-08-17T02:13:21.518Z,65.90
2018-08-17T02:15:49.677Z,65.90
2018-08-17T02:18:17.861Z,66.00
2018-08-17T02:20:46.036Z,65.90
2018-08-17T02:23:14.181Z,66.00
2018-08-17T02:25:42.357Z,66.00
2018-08-17T02:28:10.509Z,66.00
2018-08-17T02:30:38.705Z,65.90
2018-08-17T02:33:06.865Z,66.00
2018-08-17T02:35:35.041Z,66.00
2018-08-17T02:38:03.202Z,66.00
2018-08-17T02:40:31.419Z,66.20
2018-08-17T02:42:59.678Z,66.20
2018-08-17T02:45:27.856Z,66.30
2018-08-17T02:47:56.027Z,66.40
2018-08-17T02:50:24.306Z,66.40
2018-08-17T02:52:52.494Z,66.50
2018-08-17T02:55:20.688Z,66.40
2018-08-17T02:57:48.851Z,66.50
2018-08-17T03:00:17.040Z,66.60
2018-08-17T03:02:45.219Z,66.70
2018-08-17T03:05:13.399Z,66.80
2018-08-17T03:07:41.555Z,66.80
2018-08-17T03:10:09.723Z,67.00
2018-08-17T03:12:37.881Z,67.10
2018-08-17T03:15:06.239Z,67.10
2018-08-17T03:17:34.450Z,67.10
2018-08-17T03:20:02.635Z,67.10
2018-08-17T03:22:30.798Z,67.20
2018-08-17T03:24:59.017Z,67.20
2018-08-17T03:27:27.178Z,67.30
2018-08-17T03:29:55.352Z,67.20
2018-08-17T03:32:23.515Z,67.20
2018-08-17T03:34:51.693Z,67.20
2018-08-17T03:37:25.457Z,67.20
2018-08-17T03:39:53.620Z,67.20
2018-08-17T03:42:21.775Z,67.40
2018-08-17T03:44:49.942Z,67.10
2018-08-17T03:47:18.153Z,67.10
2018-08-17T03:49:46.321Z,67.20
2018-08-17T03:52:14.454Z,67.20
2018-08-17T03:54:42.605Z,67.40
2018-08-17T03:57:10.749Z,67.00
2018-08-17T03:59:38.923Z,67.10
2018-08-17T04:02:07.627Z,67.00
2018-08-17T04:04:35.753Z,67.00
2018-08-17T04:07:03.917Z,67.00
2018-08-17T04:09:32.086Z,67.00
2018-08-17T04:12:00.242Z,67.00
2018-08-17T04:14:28.411Z,67.00
2018-08-17T04:16:56.554Z,67.00
2018-08-17T04:19:24.699Z,66.90
2018-08-17T04:21:52.825Z,66.90
2018-08-17T04:24:20.979Z,66.90
2018-08-17T04:26:49.131Z,67.10
2018-08-17T04:29:17.277Z,67.20
2018-08-17T04:31:45.442Z,67.20
2018-08-17T04:34:13.580Z,67.30
2018-08-17T04:36:41.713Z,67.20
2018-08-17T04:39:09.845Z,67.10
2018-08-17T04:41:37.990Z,67.00
2018-08-17T04:44:06.129Z,67.10
2018-08-17T04:46:34.298Z,67.50
2018-08-17T04:49:02.429Z,67.90
2018-08-17T04:51:30.624Z,68.40
2018-08-17T04:53:58.750Z,68.70
2018-08-17T04:56:26.893Z,68.80
2018-08-17T04:58:55.026Z,69.00
2018-08-17T05:01:23.192Z,69.10
2018-08-17T05:03:51.336Z,69.20
2018-08-17T05:06:19.510Z,69.40
2018-08-17T05:08:47.690Z,69.50
2018-08-17T05:11:15.834Z,69.70
2018-08-17T05:13:43.985Z,69.90
2018-08-17T05:16:12.134Z,70.20
2018-08-17T05:18:40.305Z,70.50
2018-08-17T05:21:08.458Z,70.70
2018-08-17T05:23:36.634Z,70.80
2018-08-17T05:26:04.773Z,70.90
2018-08-17T05:28:32.934Z,71.00
2018-08-17T05:31:01.114Z,70.80
2018-08-17T05:33:29.241Z,70.90
2018-08-17T05:35:57.451Z,70.90
2018-08-17T05:38:25.785Z,71.20
2018-08-17T05:40:53.954Z,71.30
2018-08-17T05:43:22.170Z,71.30
2018-08-17T05:45:50.312Z,71.30
2018-08-17T05:48:18.458Z,71.10
2018-08-17T05:50:46.637Z,71.30
2018-08-17T05:53:14.794Z,71.50
2018-08-17T05:55:42.994Z,71.70
2018-08-17T05:58:11.166Z,71.80
2018-08-17T06:00:39.338Z,71.60
2018-08-17T06:03:07.526Z,71.60
2018-08-17T06:05:35.702Z,71.50
2018-08-17T06:08:03.870Z,71.60
2018-08-17T06:10:32.057Z,71.50
2018-08-17T06:13:00.237Z,71.30
2018-08-17T06:15:28.465Z,71.70
2018-08-17T06:17:56.642Z,71.50
2018-08-17T06:20:24.807Z,71.20
2018-08-17T06:22:52.974Z,71.50
2018-08-17T06:25:21.122Z,71.60
2018-08-17T06:27:49.285Z,71.70
2018-08-17T06:30:17.439Z,71.90
2018-08-17T06:32:45.642Z,72.10
2018-08-17T06:35:14.438Z,72.40
2018-08-17T06:37:43.378Z,72.60
2018-08-17T06:40:11.549Z,72.70
2018-08-17T06:42:39.750Z,72.80
2018-08-17T06:45:09.634Z,73.10
2018-08-17T06:47:37.798Z,73.40
2018-08-17T06:50:07.608Z,73.80
2018-08-17T06:52:35.993Z,73.90
2018-08-17T06:55:05.170Z,74.90
2018-08-17T06:57:33.336Z,74.10
2018-08-17T07:00:01.509Z,74.00
2018-08-17T07:02:29.720Z,74.00
2018-08-17T07:04:57.864Z,74.10
2018-08-17T07:07:26.044Z,74.50
2018-08-17T07:09:54.192Z,74.60
2018-08-17T07:12:22.351Z,74.90
2018-08-17T07:14:50.524Z,75.20
2018-08-17T07:17:18.698Z,75.30
2018-08-17T07:19:46.865Z,76.30
2018-08-17T07:22:15.021Z,75.60
2018-08-17T07:24:43.181Z,75.60
2018-08-17T07:27:11.376Z,75.80
2018-08-17T07:29:39.484Z,76.10
2018-08-17T07:32:07.909Z,76.10
2018-08-17T07:34:36.071Z,76.20
2018-08-17T07:37:04.226Z,76.40
2018-08-17T07:39:32.466Z,76.70
2018-08-17T07:42:00.622Z,76.70
2018-08-17T07:44:28.820Z,76.50
2018-08-17T07:46:56.990Z,76.30
2018-08-17T07:49:25.142Z,76.20
2018-08-17T07:51:53.308Z,76.20
2018-08-17T07:54:21.490Z,76.30
2018-08-17T07:56:49.655Z,76.40
2018-08-17T07:59:17.811Z,76.20
2018-08-17T08:01:45.963Z,76.50
2018-08-17T08:04:14.125Z,76.90
2018-08-17T08:06:42.289Z,77.10
2018-08-17T08:09:11.118Z,77.10
2018-08-17T08:11:40.211Z,77.10
2018-08-17T08:14:08.798Z,77.70
2018-08-17T08:16:36.953Z,77.30
2018-08-17T08:19:09.754Z,77.00
2018-08-17T08:21:37.950Z,76.90
2018-08-17T08:24:06.119Z,77.00
2018-08-17T08:26:34.278Z,77.40
2018-08-17T08:29:02.444Z,77.70
2018-08-17T08:31:30.610Z,78.40
2018-08-17T08:33:58.853Z,78.40
2018-08-17T08:36:27.018Z,78.30
2018-08-17T08:38:55.205Z,78.30
2018-08-17T08:41:23.384Z,78.60
2018-08-17T08:43:51.550Z,78.90
2018-08-17T08:46:19.710Z,79.00
2018-08-17T08:48:47.922Z,79.30
2018-08-17T08:51:16.129Z,79.50
2018-08-17T08:53:44.305Z,79.40
2018-08-17T08:56:12.509Z,79.70
2018-08-17T08:58:40.669Z,79.90
2018-08-17T09:01:09.119Z,79.80
2018-08-17T09:03:37.305Z,80.10
2018-08-17T09:06:05.475Z,80.10
2018-08-17T09:08:33.629Z,80.10
2018-08-17T09:11:01.778Z,79.90
2018-08-17T09:13:29.969Z,80.20
2018-08-17T09:15:58.144Z,80.30
2018-08-17T09:18:26.310Z,80.60
2018-08-17T09:20:54.461Z,80.80
2018-08-17T09:23:22.610Z,80.70
2018-08-17T09:25:50.754Z,80.60
2018-08-17T09:28:18.906Z,80.40
2018-08-17T09:30:47.058Z,80.40
2018-08-17T09:33:15.210Z,80.00
2018-08-17T09:35:43.337Z,80.00
2018-08-17T09:38:11.486Z,79.90
2018-08-17T09:40:39.628Z,80.00
2018-08-17T09:43:07.810Z,80.00
2018-08-17T09:45:35.933Z,79.90
2018-08-17T09:48:04.067Z,80.00
2018-08-17T09:50:32.213Z,79.90
2018-08-17T09:53:00.354Z,80.00
2018-08-17T09:55:28.497Z,79.30
2018-08-17T09:57:56.633Z,79.40
2018-08-17T10:00:30.035Z,78.70
2018-08-17T10:03:03.714Z,78.60
2018-08-17T10:05:40.077Z,78.70
2018-08-17T10:08:13.817Z,78.20
2018-08-17T10:10:43.063Z,78.80
2018-08-17T10:13:11.201Z,78.10
2018-08-17T10:15:39.432Z,78.50
2018-08-17T10:18:07.550Z,78.60
2018-08-17T10:20:35.695Z,78.30
2018-08-17T10:23:12.828Z,78.30
2018-08-17T10:25:40.975Z,78.50
2018-08-17T10:28:09.123Z,78.80
2018-08-17T10:30:37.278Z,78.60
2018-08-17T10:33:05.413Z,77.90
2018-08-17T10:35:34.695Z,77.80
2018-08-17T10:38:05.883Z,78.00
2018-08-17T10:40:34.025Z,78.20
2018-08-17T10:43:03.201Z,78.80
2018-08-17T10:45:31.537Z,78.80
2018-08-17T10:47:59.901Z,78.80
2018-08-17T10:50:29.321Z,78.80
2018-08-17T10:52:58.591Z,78.80
2018-08-17T10:55:35.501Z,78.50
2018-08-17T10:58:04.277Z,78.80
2018-08-17T11:00:32.405Z,79.10
2018-08-17T11:03:00.566Z,79.80
2018-08-17T11:05:28.742Z,79.50
2018-08-17T11:07:56.870Z,79.10
2018-08-17T11:10:25.022Z,79.20
2018-08-17T11:12:53.175Z,78.80
2018-08-17T11:15:21.313Z,78.80
2018-08-17T11:17:49.547Z,78.40
2018-08-17T11:20:18.345Z,78.00
2018-08-17T11:22:46.495Z,77.90
2018-08-17T11:25:14.610Z,78.80
2018-08-17T11:27:42.745Z,78.00
2018-08-17T11:30:12.374Z,79.00
2018-08-17T11:32:40.965Z,78.50
2018-08-17T11:35:09.104Z,78.40
2018-08-17T11:37:37.288Z,78.10
2018-08-17T11:40:06.998Z,78.30
2018-08-17T11:42:46.857Z,78.80
2018-08-17T11:45:18.220Z,78.60
2018-08-17T11:47:46.994Z,79.00
2018-08-17T11:50:17.749Z,78.70
2018-08-17T11:52:59.145Z,78.30
2018-08-17T11:55:29.445Z,78.10
2018-08-17T11:57:57.626Z,77.60
2018-08-17T12:00:26.042Z,78.10
2018-08-17T12:02:54.197Z,77.30
2018-08-17T12:05:22.371Z,77.00
2018-08-17T12:07:50.562Z,76.90
2018-08-17T12:10:18.724Z,76.50
2018-08-17T12:12:47.065Z,76.20
2018-08-17T12:15:15.653Z,76.00
2018-08-17T12:17:43.813Z,76.60
2018-08-17T12:20:11.972Z,75.80
2018-08-17T12:22:40.118Z,75.90
2018-08-17T12:25:08.831Z,75.90
2018-08-17T12:27:36.931Z,75.80
2018-08-17T12:30:06.216Z,75.80
2018-08-17T12:32:34.391Z,74.70
2018-08-17T12:35:02.608Z,74.50
2018-08-17T12:37:30.769Z,74.80
2018-08-17T12:39:58.934Z,74.70
2018-08-17T12:42:27.091Z,74.70
2018-08-17T12:45:02.599Z,74.70
2018-08-17T12:47:31.087Z,73.80
2018-08-17T12:49:59.290Z,73.50
2018-08-17T12:52:27.580Z,72.90
2018-08-17T12:54:55.728Z,72.70
2018-08-17T12:57:28.135Z,72.80
2018-08-17T12:59:56.292Z,73.20
2018-08-17T13:02:24.481Z,73.40
2018-08-17T13:04:52.638Z,74.10
2018-08-17T13:07:20.794Z,73.20
2018-08-17T13:09:52.284Z,72.90
2018-08-17T13:12:20.422Z,72.90
2018-08-17T13:14:49.107Z,72.90
2018-08-17T13:17:17.373Z,72.80
2018-08-17T13:19:45.470Z,72.10
2018-08-17T13:22:13.631Z,71.80
2018-08-17T13:24:41.777Z,72.80
2018-08-17T13:27:09.942Z,72.10
2018-08-17T13:29:38.109Z,71.80
2018-08-17T13:32:06.378Z,71.40
2018-08-17T13:34:34.541Z,70.90
2018-08-17T13:37:02.746Z,71.00
2018-08-17T13:39:30.898Z,71.10
2018-08-17T13:41:59.135Z,70.70
2018-08-17T13:44:27.282Z,70.20
2018-08-17T13:46:55.513Z,70.10
2018-08-17T13:49:23.669Z,70.10
2018-08-17T13:51:51.845Z,69.90
2018-08-17T13:54:19.993Z,69.60
2018-08-17T13:56:48.162Z,69.60
2018-08-17T13:59:16.342Z,69.50
2018-08-17T14:01:44.493Z,69.30
2018-08-17T14:04:12.654Z,69.10
2018-08-17T14:06:40.917Z,68.30
2018-08-17T14:09:09.070Z,67.40
2018-08-17T14:11:37.237Z,66.80
2018-08-17T14:14:05.406Z,66.70
2018-08-17T14:16:33.569Z,66.60
2018-08-17T14:19:01.713Z,66.30
2018-08-17T14:21:29.942Z,66.70
2018-08-17T14:23:58.910Z,65.50
2018-08-17T14:26:27.075Z,65.40
2018-08-17T14:28:55.254Z,65.50
2018-08-17T14:31:23.391Z,64.50
2018-08-17T14:33:51.550Z,64.40
2018-08-17T14:36:19.737Z,63.80
2018-08-17T14:38:47.906Z,63.40
2018-08-17T14:41:16.102Z,63.00
2018-08-17T14:43:44.259Z,62.80
2018-08-17T14:46:12.449Z,62.60
2018-08-17T14:48:40.610Z,62.30
2018-08-17T14:51:08.800Z,62.60
2018-08-17T14:53:36.941Z,61.20
2018-08-17T14:56:05.217Z,60.70
2018-08-17T14:58:33.397Z,60.70
2018-08-17T15:01:01.627Z,60.80
2018-08-17T15:03:29.773Z,60.30
2018-08-17T15:05:57.922Z,59.30
2018-08-17T15:08:26.078Z,58.40
2018-08-17T15:10:54.206Z,58.10
2018-08-17T15:13:22.427Z,58.20
2018-08-17T15:15:50.498Z,58.40
2018-08-17T15:18:18.645Z,58.40
2018-08-17T15:20:46.782Z,58.10
2018-08-17T15:23:14.934Z,58.10
2018-08-17T15:25:43.065Z,57.80
2018-08-17T15:28:11.218Z,57.80
2018-08-17T15:30:39.353Z,57.60
2018-08-17T15:33:07.587Z,57.40
2018-08-17T15:35:35.729Z,57.00
2018-08-17T15:38:03.873Z,56.90
2018-08-17T15:40:32.010Z,56.60
2018-08-17T15:43:04.499Z,56.20
2018-08-17T15:45:32.633Z,55.90
2018-08-17T15:48:00.773Z,55.50
2018-08-17T15:50:28.951Z,55.40
2018-08-17T15:52:57.117Z,55.20
2018-08-17T15:55:25.265Z,55.20
2018-08-17T15:57:53.511Z,55.10
2018-08-17T16:00:21.640Z,55.00
2018-08-17T16:02:49.788Z,54.40
2018-08-17T16:05:17.937Z,53.90
2018-08-17T16:07:46.098Z,53.80
2018-08-17T16:10:15.453Z,53.40
2018-08-17T16:12:43.778Z,53.50
2018-08-17T16:15:12.019Z,52.70
2018-08-17T16:17:40.212Z,53.40
2018-08-17T16:20:09.623Z,53.10
2018-08-17T16:22:37.795Z,53.00
2018-08-17T16:25:06.905Z,53.00
2018-08-17T16:27:35.101Z,52.90
2018-08-17T16:30:03.258Z,52.90
2018-08-17T16:32:31.489Z,52.60
2018-08-17T16:34:59.674Z,52.20
2018-08-17T16:37:27.846Z,52.20
2018-08-17T16:39:56.246Z,52.30
2018-08-17T16:42:41.227Z,53.10
2018-08-17T16:45:09.614Z,52.60
2018-08-17T16:47:37.802Z,53.00
2018-08-17T16:50:07.219Z,53.50
2018-08-17T16:52:35.390Z,53.80
2018-08-17T16:55:03.714Z,54.10
2018-08-17T16:57:31.855Z,54.20
2018-08-17T17:00:00.027Z,53.90
2018-08-17T17:02:28.161Z,53.60
2018-08-17T17:04:56.314Z,54.10
2018-08-17T17:07:28.150Z,53.20
2018-08-17T17:09:56.326Z,53.70
2018-08-17T17:12:24.478Z,53.40
2018-08-17T17:14:52.621Z,53.30
2018-08-17T17:17:20.837Z,53.60
2018-08-17T17:19:48.978Z,53.50
2018-08-17T17:22:17.113Z,53.80
2018-08-17T17:24:45.261Z,53.80
2018-08-17T17:27:14.839Z,53.50
2018-08-17T17:29:42.979Z,53.40
2018-08-17T17:32:11.126Z,53.40
2018-08-17T17:34:39.328Z,53.60
2018-08-17T17:37:07.469Z,53.70
2018-08-17T17:39:35.655Z,54.00
2018-08-17T17:42:03.799Z,54.10
2018-08-17T17:44:32.001Z,54.00
2018-08-17T17:47:00.106Z,54.00
2018-08-17T17:49:28.266Z,54.10
2018-08-17T17:51:56.423Z,53.90
2018-08-17T17:54:25.539Z,54.00
2018-08-17T17:57:00.298Z,53.70
2018-08-17T17:59:28.497Z,53.50
2018-08-17T18:01:56.681Z,53.50
2018-08-17T18:04:25.800Z,53.80
2018-08-17T18:06:53.979Z,53.80
2018-08-17T18:09:22.161Z,54.00
2018-08-17T18:11:50.298Z,53.90
2018-08-17T18:14:19.405Z,53.80
2018-08-17T18:16:47.561Z,54.00
2018-08-17T18:19:15.717Z,54.10
2018-08-17T18:21:43.862Z,54.00
2018-08-17T18:24:12.539Z,54.20
2018-08-17T18:26:47.138Z,54.20
2018-08-17T18:29:15.371Z,54.50
2018-08-17T18:31:43.590Z,54.60
2018-08-17T18:34:11.834Z,54.70
2018-08-17T18:36:40.458Z,54.70
2018-08-17T18:39:10.987Z,54.70
2018-08-17T18:41:39.150Z,54.70
2018-08-17T18:44:07.338Z,54.60
2018-08-17T18:46:35.768Z,54.90
2018-08-17T18:49:03.965Z,54.80
2018-08-17T18:51:32.150Z,54.90
2018-08-17T18:54:00.422Z,54.90
2018-08-17T18:56:28.663Z,55.10
2018-08-17T18:58:57.111Z,55.10
2018-08-17T19:01:25.263Z,55.30
2018-08-17T19:03:53.449Z,55.40
2018-08-17T19:06:21.621Z,55.60
2018-08-17T19:08:49.774Z,55.80
2018-08-17T19:11:18.209Z,55.90
2018-08-17T19:13:46.376Z,56.10
2018-08-17T19:16:14.632Z,56.10
2018-08-17T19:18:42.698Z,56.20
2018-08-17T19:21:13.363Z,56.50
2018-08-17T19:23:41.520Z,56.80
2018-08-17T19:26:10.394Z,57.00
2018-08-17T19:28:41.082Z,57.20
2018-08-17T19:31:09.259Z,57.40
2018-08-17T19:33:37.454Z,57.70
2018-08-17T19:36:08.446Z,58.10
2018-08-17T19:38:38.194Z,58.30
2018-08-17T19:41:06.491Z,58.50
2018-08-17T19:43:34.791Z,58.60
2018-08-17T19:46:03.185Z,58.80
2018-08-17T19:48:31.623Z,58.90
2018-08-17T19:50:59.845Z,59.00
2018-08-17T19:53:28.274Z,59.10
2018-08-17T19:55:57.166Z,59.20
2018-08-17T19:58:25.517Z,59.50
2018-08-17T20:00:53.654Z,59.70
2018-08-17T20:03:22.667Z,59.80
2018-08-17T20:05:50.846Z,60.00
2018-08-17T20:08:19.129Z,60.10
2018-08-17T20:10:47.415Z,60.20
2018-08-17T20:13:15.598Z,60.30
2018-08-17T20:15:43.753Z,60.40
2018-08-17T20:18:11.899Z,61.30
2018-08-17T20:20:40.075Z,60.70
2018-08-17T20:23:08.243Z,60.80
2018-08-17T20:25:36.398Z,61.10
2018-08-17T20:28:04.514Z,61.00
2018-08-17T20:30:32.673Z,61.20
2018-08-17T20:33:00.842Z,61.40
2018-08-17T20:35:29.031Z,61.50
2018-08-17T20:37:57.164Z,61.70
2018-08-17T20:40:25.398Z,61.90
2018-08-17T20:42:53.567Z,62.10
2018-08-17T20:45:25.371Z,62.30
2018-08-17T20:47:53.527Z,62.40
2018-08-17T20:50:21.686Z,62.60
2018-08-17T20:52:55.451Z,62.70
2018-08-17T20:55:23.596Z,62.70
2018-08-17T20:57:52.974Z,62.70
2018-08-17T21:00:21.844Z,62.70
2018-08-17T21:02:49.981Z,63.40
2018-08-17T21:05:18.181Z,62.70
2018-08-17T21:07:47.306Z,62.70
2018-08-17T21:10:15.449Z,62.80
2018-08-17T21:12:43.966Z,63.00
2018-08-17T21:15:12.159Z,63.00
2018-08-17T21:17:40.318Z,63.30
2018-08-17T21:20:08.459Z,63.30
2018-08-17T21:22:36.615Z,63.50
2018-08-17T21:25:05.242Z,63.60
2018-08-17T21:27:33.728Z,63.60
2018-08-17T21:30:01.955Z,64.40
2018-08-17T21:32:30.094Z,63.80
2018-08-17T21:34:58.318Z,63.90
2018-08-17T21:37:27.201Z,63.90
2018-08-17T21:39:55.449Z,64.00
2018-08-17T21:42:23.675Z,64.10
2018-08-17T21:44:51.802Z,64.30
2018-08-17T21:47:19.937Z,64.50
2018-08-17T21:49:48.098Z,64.60
2018-08-17T21:52:21.655Z,64.50
2018-08-17T21:54:49.825Z,65.20
2018-08-17T21:57:17.995Z,64.40
2018-08-17T21:59:47.966Z,64.40
2018-08-17T22:02:16.349Z,64.60
2018-08-17T22:04:44.514Z,64.70
2018-08-17T22:07:18.130Z,64.70
2018-08-17T22:09:46.298Z,64.60
2018-08-17T22:12:14.565Z,64.50
2018-08-17T22:14:44.771Z,64.30
2018-08-17T22:17:24.268Z,64.20
2018-08-17T22:19:52.534Z,64.00
2018-08-17T22:22:20.707Z,64.00
2018-08-17T22:24:52.130Z,63.80
2018-08-17T22:27:21.680Z,63.80
2018-08-17T22:29:51.068Z,64.70
2018-08-17T22:32:19.526Z,63.80
2018-08-17T22:34:47.988Z,63.80
2018-08-17T22:37:16.381Z,63.90
2018-08-17T22:39:44.573Z,63.80
2018-08-17T22:42:13.138Z,63.80
2018-08-17T22:44:41.280Z,63.80
2018-08-17T22:47:28.454Z,63.80
2018-08-17T22:49:57.381Z,63.70
2018-08-17T22:52:25.573Z,63.60
2018-08-17T22:54:58.828Z,63.60
2018-08-17T22:57:27.753Z,63.60
2018-08-17T23:00:13.010Z,63.60
2018-08-17T23:02:42.381Z,63.50
2018-08-17T23:05:11.949Z,63.70
2018-08-17T23:07:40.097Z,64.00
2018-08-17T23:10:10.501Z,64.10
2018-08-17T23:12:38.720Z,64.10
2018-08-17T23:15:08.025Z,64.20
2018-08-17T23:17:36.185Z,64.20
2018-08-17T23:20:05.288Z,64.20
2018-08-17T23:22:34.571Z,64.20
2018-08-17T23:25:02.714Z,64.20
2018-08-17T23:27:30.864Z,64.50
2018-08-17T23:29:59.019Z,64.60
2018-08-17T23:32:27.150Z,64.50
2018-08-17T23:34:55.277Z,64.50
2018-08-17T23:37:23.442Z,64.60
2018-08-17T23:39:51.592Z,64.50
2018-08-17T23:42:19.744Z,64.50
2018-08-17T23:44:47.869Z,64.50
2018-08-17T23:47:16.026Z,64.40
2018-08-17T23:49:44.201Z,64.60
2018-08-17T23:52:12.365Z,65.30
2018-08-17T23:54:40.518Z,64.50
2018-08-17T23:57:08.694Z,64.50
2018-08-17T23:59:36.915Z,64.70
